Time;durP1;ratioP1;P1;durP2;ratioP2;P2;SDS_P1;SDS_P2;PMS_P1;PMS_P2;Temp;Humidity;BMP_temperature;BMP_pressure;BME280_temperature;BME280_humidity;BME280_pressure;Samples;Min_cycle;Max_cycle;Signal;HPM_P1;HPM_P2
2024/01/09 00:02:09;;;;;;;12.00;5.20;;;;;;;;;;5033641;28;20207;-25
2024/01/09 00:04:45;;;;;;;7.73;5.00;;;;;;;;;;5032023;28;20226;-25
2024/01/09 00:10:00;;;;;;;7.90;4.83;;;;;;;;;;5617974;22;20234;-25
2024/01/09 00:12:37;;;;;;;6.07;3.83;;;;;;;;;;5050445;28;20202;-24
2024/01/09 00:15:11;;;;;;;10.27;5.33;;;;;;;;;;5045422;28;20289;-26
2024/01/09 00:17:46;;;;;;;6.53;3.13;;;;;;;;;;5045335;28;20216;-27
2024/01/09 00:20:17;;;;;;;7.23;4.47;;;;;;;;;;5045686;28;20205;-27
2024/01/09 00:22:48;;;;;;;4.00;2.67;;;;;;;;;;5048876;28;20317;-28
2024/01/09 00:25:22;;;;;;;10.63;4.60;;;;;;;;;;5053024;28;20248;-23
2024/01/09 00:27:58;;;;;;;8.10;5.10;;;;;;;;;;5049801;28;20245;-25
2024/01/09 00:30:33;;;;;;;8.40;4.80;;;;;;;;;;5052730;28;20225;-27
2024/01/09 00:33:21;;;;;;;6.63;4.53;;;;;;;;;;5044024;28;20205;-26
2024/01/09 00:35:56;;;;;;;7.80;4.83;;;;;;;;;;5044982;28;20222;-27
2024/01/09 00:38:31;;;;;;;7.47;5.00;;;;;;;;;;5049975;28;20212;-28
2024/01/09 00:41:13;;;;;;;8.40;4.97;;;;;;;;;;5049887;28;20210;-28
2024/01/09 00:43:55;;;;;;;6.70;4.20;;;;;;;;;;5049171;28;20665;-28
2024/01/09 00:46:31;;;;;;;8.37;5.13;;;;;;;;;;5052972;28;20292;-29
2024/01/09 00:49:01;;;;;;;9.80;5.53;;;;;;;;;;5051717;28;20217;-29
2024/01/09 00:51:37;;;;;;;9.00;4.50;;;;;;;;;;5044490;28;20285;-27
2024/01/09 00:54:15;;;;;;;5.90;4.33;;;;;;;;;;5043855;28;20203;-28
2024/01/09 00:59:27;;;;;;;9.23;4.63;;;;;;;;;;5145382;22;20601;-27
2024/01/09 01:01:58;;;;;;;7.90;4.83;;;;;;;;;;5053038;28;20217;-27
2024/01/09 01:04:37;;;;;;;8.30;4.83;;;;;;;;;;5051991;28;20268;-24
2024/01/09 01:12:30;;;;;;;7.47;4.57;;;;;;;;;;5477266;22;20233;-27
2024/01/09 01:15:16;;;;;;;11.10;7.00;;;;;;;;;;5261987;22;20332;-26
2024/01/09 01:22:58;;;;;;;9.33;5.57;;;;;;;;;;6209699;22;20265;-24
2024/01/09 01:31:02;;;;;;;7.60;4.10;;;;;;;;;;5779712;22;20257;-25
2024/01/09 01:41:25;;;;;;;5.83;4.57;;;;;;;;;;1354097;22;20406;-27
2024/01/09 01:44:00;;;;;;;6.57;3.83;;;;;;;;;;5042147;28;20255;-27
2024/01/09 01:46:37;;;;;;;9.07;5.50;;;;;;;;;;5046298;28;20206;-27
2024/01/09 02:04:49;;;;;;;8.40;5.03;;;;;;;;;;5975049;22;20225;-27
2024/01/09 02:12:51;;;;;;;10.67;4.80;;;;;;;;;;5580260;22;20233;-25
2024/01/09 02:15:35;;;;;;;4.60;3.77;;;;;;;;;;5051836;28;20217;-24
2024/01/09 02:18:13;;;;;;;7.07;5.23;;;;;;;;;;5051535;28;20263;-26
2024/01/09 02:20:50;;;;;;;10.33;5.50;;;;;;;;;;5045623;28;20199;-26
2024/01/09 02:23:24;;;;;;;10.30;5.83;;;;;;;;;;5048356;28;20458;-27
2024/01/09 02:28:42;;;;;;;8.83;4.70;;;;;;;;;;5049073;28;20214;-24
2024/01/09 02:31:15;;;;;;;8.43;4.60;;;;;;;;;;5045961;28;20209;-24
2024/01/09 02:33:48;;;;;;;11.83;5.67;;;;;;;;;;5044372;28;20194;-26
2024/01/09 02:36:21;;;;;;;8.27;4.57;;;;;;;;;;5046882;28;20245;-27
2024/01/09 02:39:01;;;;;;;8.73;4.43;;;;;;;;;;5053311;28;20201;-26
2024/01/09 02:41:39;;;;;;;8.50;5.30;;;;;;;;;;5039100;28;20715;-26
2024/01/09 02:44:16;;;;;;;8.53;4.77;;;;;;;;;;5053038;28;20221;-26
2024/01/09 02:57:14;;;;;;;8.07;4.03;;;;;;;;;;5201982;22;20229;-28
2024/01/09 02:59:45;;;;;;;9.20;5.50;;;;;;;;;;5061966;28;20254;-29
2024/01/09 03:02:16;;;;;;;8.23;4.10;;;;;;;;;;5057795;28;20209;-27
2024/01/09 03:04:46;;;;;;;8.13;4.90;;;;;;;;;;5057620;28;20225;-28
2024/01/09 03:07:28;;;;;;;5.13;2.67;;;;;;;;;;5054105;28;20216;-27
2024/01/09 03:10:03;;;;;;;10.43;4.90;;;;;;;;;;5048346;28;20648;-26
2024/01/09 03:12:43;;;;;;;8.47;5.23;;;;;;;;;;5054255;28;20224;-27
2024/01/09 03:15:17;;;;;;;9.43;5.07;;;;;;;;;;5053771;28;20267;-28
2024/01/09 03:17:51;;;;;;;7.00;3.73;;;;;;;;;;5052997;28;20205;-29
2024/01/09 03:20:24;;;;;;;8.37;4.77;;;;;;;;;;5046474;28;20225;-26
2024/01/09 03:22:57;;;;;;;9.20;4.87;;;;;;;;;;5053255;28;20206;-27
2024/01/09 03:25:27;;;;;;;6.00;3.63;;;;;;;;;;5050131;28;20248;-28
2024/01/09 03:28:12;;;;;;;8.83;5.53;;;;;;;;;;5053400;28;20198;-26
2024/01/09 03:30:42;;;;;;;8.23;4.10;;;;;;;;;;5053437;28;20197;-30
2024/01/09 03:33:18;;;;;;;6.73;3.97;;;;;;;;;;5048689;28;20210;-27
2024/01/09 03:35:55;;;;;;;7.70;4.23;;;;;;;;;;5042915;28;20218;-27
2024/01/09 03:51:25;;;;;;;6.80;4.67;;;;;;;;;;5168748;22;20295;-28
2024/01/09 03:54:07;;;;;;;8.93;4.97;;;;;;;;;;5056103;28;20316;-29
2024/01/09 03:56:47;;;;;;;9.53;5.63;;;;;;;;;;5047182;28;20258;-26
2024/01/09 03:59:22;;;;;;;9.20;5.30;;;;;;;;;;5052427;28;20268;-28
2024/01/09 04:01:55;;;;;;;7.63;4.60;;;;;;;;;;5044818;28;20516;-27
2024/01/09 04:04:42;;;;;;;8.47;5.93;;;;;;;;;;5042704;28;20753;-27
2024/01/09 04:07:24;;;;;;;2.70;2.43;;;;;;;;;;5050537;28;20259;-27
2024/01/09 04:10:02;;;;;;;9.83;5.13;;;;;;;;;;5049584;28;20209;-27
2024/01/09 04:12:48;;;;;;;8.70;4.63;;;;;;;;;;5046005;28;20218;-28
2024/01/09 04:15:21;;;;;;;9.43;5.87;;;;;;;;;;5048928;28;20226;-27
2024/01/09 04:18:04;;;;;;;10.30;5.10;;;;;;;;;;5052181;28;20198;-29
2024/01/09 04:20:52;;;;;;;10.57;5.10;;;;;;;;;;5045880;28;20667;-26
2024/01/09 04:23:34;;;;;;;6.03;3.70;;;;;;;;;;5040034;28;20698;-26
2024/01/09 04:26:15;;;;;;;10.03;4.90;;;;;;;;;;5049903;28;20226;-26
2024/01/09 04:31:46;;;;;;;3.87;3.20;;;;;;;;;;5032861;28;20201;-26
2024/01/09 04:34:28;;;;;;;9.97;6.60;;;;;;;;;;5051673;28;20237;-27
2024/01/09 04:37:17;;;;;;;9.37;4.23;;;;;;;;;;5052901;28;20209;-29
2024/01/09 04:50:19;;;;;;;9.03;4.77;;;;;;;;;;5418475;22;20240;-33
2024/01/09 04:52:57;;;;;;;9.83;5.30;;;;;;;;;;5301925;22;20236;-28
2024/01/09 05:00:41;;;;;;;8.73;4.23;;;;;;;;;;5154679;22;20678;-33
2024/01/09 05:03:16;;;;;;;7.60;4.30;;;;;;;;;;5065948;28;20220;-33
2024/01/09 05:08:33;;;;;;;12.13;5.90;;;;;;;;;;5760740;22;20263;-26
2024/01/09 05:11:11;;;;;;;11.83;4.93;;;;;;;;;;5061403;28;20212;-26
2024/01/09 05:13:40;;;;;;;6.33;4.33;;;;;;;;;;5072140;28;20205;-26
2024/01/09 05:16:16;;;;;;;7.20;5.27;;;;;;;;;;5054441;28;20221;-28
2024/01/09 05:18:55;;;;;;;8.07;4.83;;;;;;;;;;5035695;28;20201;-26
2024/01/09 05:21:30;;;;;;;8.17;5.20;;;;;;;;;;5040629;28;20206;-27
2024/01/09 05:24:10;;;;;;;3.00;1.90;;;;;;;;;;5051075;28;20296;-29
2024/01/09 05:29:22;;;;;;;8.17;4.30;;;;;;;;;;5380953;22;20286;-28
2024/01/09 05:31:55;;;;;;;11.17;5.10;;;;;;;;;;5142156;22;20596;-26
2024/01/09 05:34:27;;;;;;;8.43;4.60;;;;;;;;;;5010348;28;20231;-26
2024/01/09 05:37:07;;;;;;;8.27;4.27;;;;;;;;;;5010351;28;20253;-25
2024/01/09 05:39:47;;;;;;;7.70;4.73;;;;;;;;;;5006741;28;20215;-27
2024/01/09 05:42:18;;;;;;;8.47;5.17;;;;;;;;;;5010598;28;20293;-26
2024/01/09 05:44:57;;;;;;;7.67;4.50;;;;;;;;;;5008298;28;20231;-27
2024/01/09 05:53:36;;;;;;;47.93;43.50;;;;;;;;;;5031768;28;20324;-27
2024/01/09 05:56:09;;;;;;;48.60;43.77;;;;;;;;;;5040113;28;20232;-28
2024/01/09 06:01:17;;;;;;;14.23;12.57;;;;;;;;;;5165139;23;20678;-34
2024/01/09 06:03:51;;;;;;;30.47;27.33;;;;;;;;;;5032343;28;20253;-33
2024/01/09 06:06:35;;;;;;;38.50;34.57;;;;;;;;;;5033759;28;20604;-35
2024/01/09 06:09:14;;;;;;;21.07;18.83;;;;;;;;;;5307059;22;20265;-27
2024/01/09 06:14:35;;;;;;;17.87;14.47;;;;;;;;;;5723394;22;20237;-35
2024/01/09 06:17:09;;;;;;;17.63;15.63;;;;;;;;;;5035435;28;20217;-34
2024/01/09 06:19:47;;;;;;;24.70;22.23;;;;;;;;;;5025712;28;20564;-35
2024/01/09 06:22:23;;;;;;;16.33;9.80;;;;;;;;;;5034555;28;20206;-36
2024/01/09 06:33:04;;;;;;;17.40;14.07;;;;;;;;;;5428426;22;20814;-32
2024/01/09 06:35:40;;;;;;;15.13;9.27;;;;;;;;;;5027253;28;20304;-32
2024/01/09 06:38:16;;;;;;;13.30;7.87;;;;;;;;;;5034163;28;20302;-31
2024/01/09 06:46:07;;;;;;;12.90;7.87;;;;;;;;;;5446340;22;20290;-34
2024/01/09 06:48:42;;;;;;;12.20;6.77;;;;;;;;;;5066575;28;20232;-29
2024/01/09 06:51:14;;;;;;;9.97;7.83;;;;;;;;;;5060509;28;20208;-33
2024/01/09 06:53:46;;;;;;;14.17;7.83;;;;;;;;;;5459526;23;20653;-30
2024/01/09 06:56:21;;;;;;;12.10;7.43;;;;;;;;;;5044663;28;20745;-32
2024/01/09 06:59:02;;;;;;;13.37;7.20;;;;;;;;;;5034373;28;20202;-35
2024/01/09 07:06:48;;;;;;;8.77;6.50;;;;;;;;;;5475652;22;20248;-33
2024/01/09 07:09:24;;;;;;;12.70;7.03;;;;;;;;;;5052735;28;20206;-30
2024/01/09 07:11:58;;;;;;;14.13;7.43;;;;;;;;;;5286708;22;20233;-34
2024/01/09 07:17:07;;;;;;;11.00;6.10;;;;;;;;;;5200796;22;20361;-34
2024/01/09 07:19:46;;;;;;;12.60;6.30;;;;;;;;;;5043941;28;20267;-32
2024/01/09 07:22:21;;;;;;;14.87;6.73;;;;;;;;;;5051341;28;20248;-32
2024/01/09 07:24:55;;;;;;;11.60;7.60;;;;;;;;;;5053573;28;20297;-33
2024/01/09 07:27:30;;;;;;;10.77;6.67;;;;;;;;;;5043633;28;20207;-35
2024/01/09 07:30:05;;;;;;;13.63;7.73;;;;;;;;;;5033824;28;20206;-33
2024/01/09 07:32:37;;;;;;;10.13;6.80;;;;;;;;;;5034365;28;20656;-33
2024/01/09 07:35:09;;;;;;;11.77;6.43;;;;;;;;;;5041318;28;20248;-32
2024/01/09 07:37:42;;;;;;;11.53;5.40;;;;;;;;;;5038026;28;20248;-40
2024/01/09 07:40:16;;;;;;;13.17;6.47;;;;;;;;;;5044427;28;20233;-32
2024/01/09 07:42:55;;;;;;;10.40;6.20;;;;;;;;;;5033569;28;20211;-36
2024/01/09 07:45:29;;;;;;;5.00;2.80;;;;;;;;;;5042898;28;20232;-33
2024/01/09 07:48:03;;;;;;;12.40;6.67;;;;;;;;;;5045543;28;20209;-36
2024/01/09 07:50:33;;;;;;;12.40;6.33;;;;;;;;;;5040501;28;20271;-32
2024/01/09 07:55:36;;;;;;;15.67;6.37;;;;;;;;;;5606911;22;21713;-24
2024/01/09 08:01:20;;;;;;;6.93;4.70;;;;;;;;;;5037070;28;20192;-25
2024/01/09 08:03:47;;;;;;;9.90;5.40;;;;;;;;;;5033552;28;20199;-26
2024/01/09 08:06:18;;;;;;;13.70;7.50;;;;;;;;;;5033554;28;20230;-25
2024/01/09 08:08:56;;;;;;;7.43;4.70;;;;;;;;;;5043700;28;20202;-26
2024/01/09 08:11:32;;;;;;;11.47;6.27;;;;;;;;;;5041927;28;20260;-24
2024/01/09 08:14:06;;;;;;;14.27;7.87;;;;;;;;;;5039051;28;20219;-28
2024/01/09 08:16:40;;;;;;;11.63;6.27;;;;;;;;;;5047968;28;20663;-25
2024/01/09 08:19:16;;;;;;;9.23;6.13;;;;;;;;;;5048816;28;20201;-27
2024/01/09 08:21:47;;;;;;;12.00;7.27;;;;;;;;;;5037356;28;20292;-27
2024/01/09 08:24:23;;;;;;;10.23;6.47;;;;;;;;;;5052082;28;20574;-26
2024/01/09 08:26:59;;;;;;;14.13;7.60;;;;;;;;;;5043864;28;20720;-25
2024/01/09 08:29:32;;;;;;;9.93;6.07;;;;;;;;;;5043422;28;20208;-25
2024/01/09 08:32:01;;;;;;;10.67;6.93;;;;;;;;;;5039262;28;20305;-27
2024/01/09 08:34:32;;;;;;;4.87;3.07;;;;;;;;;;5034751;28;20245;-26
2024/01/09 08:37:03;;;;;;;7.70;5.13;;;;;;;;;;5042416;28;20198;-26
2024/01/09 08:39:39;;;;;;;15.37;8.67;;;;;;;;;;5051065;28;20268;-27
2024/01/09 08:42:32;;;;;;;14.10;7.50;;;;;;;;;;5052310;28;20210;-28
2024/01/09 08:50:20;;;;;;;15.17;9.53;;;;;;;;;;5053482;28;20315;-27
2024/01/09 08:52:59;;;;;;;14.77;7.87;;;;;;;;;;5039998;28;20206;-27
2024/01/09 08:55:47;;;;;;;13.20;8.70;;;;;;;;;;5043058;28;20229;-27
2024/01/09 08:58:20;;;;;;;14.73;9.63;;;;;;;;;;5032562;28;20210;-25
2024/01/09 09:00:56;;;;;;;15.20;9.20;;;;;;;;;;5037054;28;20208;-25
2024/01/09 09:03:43;;;;;;;18.37;10.27;;;;;;;;;;5043592;28;20293;-26
2024/01/09 09:06:18;;;;;;;12.33;7.80;;;;;;;;;;5045812;28;20221;-26
2024/01/09 09:08:55;;;;;;;14.17;7.80;;;;;;;;;;5032992;28;20660;-27
2024/01/09 09:11:26;;;;;;;15.00;8.20;;;;;;;;;;5041307;28;20221;-26
2024/01/09 09:13:59;;;;;;;12.57;8.33;;;;;;;;;;5044202;28;20216;-26
2024/01/09 09:16:34;;;;;;;12.57;8.43;;;;;;;;;;5033805;28;20683;-27
2024/01/09 09:19:13;;;;;;;15.63;8.13;;;;;;;;;;5038206;28;20206;-26
2024/01/09 09:24:56;;;;;;;15.93;9.00;;;;;;;;;;5031544;28;20235;-26
2024/01/09 09:27:34;;;;;;;10.83;5.87;;;;;;;;;;5022657;28;20234;-26
2024/01/09 09:32:54;;;;;;;15.00;8.40;;;;;;;;;;5022718;28;20246;-28
2024/01/09 09:35:47;;;;;;;14.80;8.27;;;;;;;;;;5002179;28;20301;-27
2024/01/09 09:38:18;;;;;;;15.67;8.37;;;;;;;;;;4988116;28;20265;-26
2024/01/09 09:40:49;;;;;;;13.70;8.73;;;;;;;;;;5008534;28;20274;-29
2024/01/09 09:43:26;;;;;;;13.20;8.23;;;;;;;;;;5004938;28;20208;-25
2024/01/09 09:46:04;;;;;;;10.23;6.20;;;;;;;;;;4996987;28;20235;-26
2024/01/09 09:48:44;;;;;;;12.40;7.27;;;;;;;;;;5014842;28;20627;-25
2024/01/09 09:51:29;;;;;;;10.80;7.07;;;;;;;;;;5008843;28;20215;-26
2024/01/09 09:54:26;;;;;;;10.20;6.57;;;;;;;;;;4998852;28;20211;-26
2024/01/09 09:57:02;;;;;;;11.30;8.33;;;;;;;;;;5400175;23;20267;-35
2024/01/09 10:02:30;;;;;;;8.73;5.63;;;;;;;;;;5067993;28;20193;-35
2024/01/09 10:05:16;;;;;;;10.43;7.33;;;;;;;;;;5056085;28;20249;-33
2024/01/09 10:07:56;;;;;;;11.10;6.83;;;;;;;;;;5046678;28;20229;-31
2024/01/09 10:10:48;;;;;;;13.80;8.07;;;;;;;;;;5054423;28;20296;-34
2024/01/09 10:13:24;;;;;;;13.07;7.50;;;;;;;;;;5046888;28;20206;-30
2024/01/09 10:16:08;;;;;;;7.07;4.90;;;;;;;;;;5040904;28;20237;-33
2024/01/09 10:18:40;;;;;;;12.90;6.47;;;;;;;;;;5043847;28;20218;-29
2024/01/09 10:21:16;;;;;;;12.23;7.30;;;;;;;;;;5049911;28;20206;-34
2024/01/09 10:24:07;;;;;;;14.43;8.03;;;;;;;;;;5044036;28;20213;-33
2024/01/09 10:26:40;;;;;;;8.93;5.97;;;;;;;;;;5606910;22;20260;-32
2024/01/09 10:29:13;;;;;;;12.73;6.87;;;;;;;;;;5039445;28;20206;-35
2024/01/09 10:31:48;;;;;;;10.40;6.43;;;;;;;;;;5045481;28;20245;-35
2024/01/09 10:34:27;;;;;;;7.90;5.37;;;;;;;;;;5040316;28;20245;-35
2024/01/09 10:37:09;;;;;;;13.70;8.20;;;;;;;;;;5036031;28;20206;-34
2024/01/09 10:39:47;;;;;;;11.60;6.47;;;;;;;;;;5046778;28;20210;-39
2024/01/09 10:42:16;;;;;;;11.77;8.47;;;;;;;;;;5047044;28;20677;-35
2024/01/09 10:44:54;;;;;;;11.13;7.17;;;;;;;;;;5036275;28;20227;-36
2024/01/09 10:47:35;;;;;;;12.00;7.37;;;;;;;;;;5042481;28;20225;-35
2024/01/09 10:52:37;;;;;;;10.17;7.23;;;;;;;;;;5021330;28;20341;-34
2024/01/09 10:55:16;;;;;;;10.87;7.23;;;;;;;;;;5016555;28;20227;-36
2024/01/09 10:57:50;;;;;;;14.30;7.47;;;;;;;;;;5013141;28;20215;-32
2024/01/09 11:00:21;;;;;;;12.70;7.67;;;;;;;;;;5016751;28;20207;-33
2024/01/09 11:02:53;;;;;;;10.00;6.07;;;;;;;;;;5023163;28;20306;-38
2024/01/09 11:05:23;;;;;;;11.33;7.90;;;;;;;;;;5015205;28;20231;-38
2024/01/09 11:07:54;;;;;;;12.00;7.27;;;;;;;;;;5026510;28;20632;-34
2024/01/09 11:10:24;;;;;;;11.37;6.63;;;;;;;;;;5030087;28;20602;-36
2024/01/09 11:12:54;;;;;;;12.17;6.83;;;;;;;;;;5014919;28;20216;-31
2024/01/09 11:15:28;;;;;;;10.63;5.93;;;;;;;;;;5014485;28;20223;-33
2024/01/09 11:18:00;;;;;;;11.23;6.67;;;;;;;;;;5015775;28;20215;-32
2024/01/09 11:20:29;;;;;;;15.10;7.57;;;;;;;;;;5024947;28;20214;-39
2024/01/09 11:22:58;;;;;;;11.37;7.67;;;;;;;;;;5025640;28;20665;-34
2024/01/09 11:25:29;;;;;;;13.33;6.70;;;;;;;;;;5022819;28;20249;-35
2024/01/09 11:27:58;;;;;;;11.13;6.97;;;;;;;;;;5016412;28;20227;-36
2024/01/09 11:30:29;;;;;;;11.53;7.20;;;;;;;;;;5014622;28;20231;-35
2024/01/09 11:33:01;;;;;;;11.30;6.90;;;;;;;;;;5026225;28;20210;-33
2024/01/09 11:35:30;;;;;;;8.50;5.23;;;;;;;;;;5019494;28;20246;-38
2024/01/09 11:38:18;;;;;;;11.90;7.27;;;;;;;;;;5024055;28;20641;-35
2024/01/09 11:40:55;;;;;;;10.33;6.97;;;;;;;;;;5014359;28;20242;-37
2024/01/09 11:43:34;;;;;;;12.10;7.50;;;;;;;;;;5014059;28;20217;-37
2024/01/09 11:46:04;;;;;;;13.07;7.30;;;;;;;;;;5014554;28;20238;-34
2024/01/09 11:48:40;;;;;;;9.47;5.17;;;;;;;;;;5009908;28;20717;-39
2024/01/09 11:51:24;;;;;;;6.67;3.97;;;;;;;;;;5021717;28;20245;-36
2024/01/09 11:53:58;;;;;;;12.40;7.20;;;;;;;;;;5021246;28;20290;-32
2024/01/09 11:56:33;;;;;;;8.33;4.53;;;;;;;;;;5024606;28;20203;-37
2024/01/09 11:59:03;;;;;;;12.10;7.53;;;;;;;;;;5014533;28;20214;-36
2024/01/09 12:01:38;;;;;;;13.07;6.10;;;;;;;;;;5020424;28;20218;-36
2024/01/09 12:04:09;;;;;;;11.53;7.43;;;;;;;;;;5012980;28;20325;-32
2024/01/09 12:06:37;;;;;;;11.47;5.83;;;;;;;;;;5022623;28;20600;-33
2024/01/09 12:09:09;;;;;;;11.07;5.03;;;;;;;;;;5026621;28;20211;-35
2024/01/09 12:11:39;;;;;;;11.27;7.70;;;;;;;;;;5020980;28;20213;-34
2024/01/09 12:14:09;;;;;;;12.20;7.20;;;;;;;;;;5020975;28;20238;-30
2024/01/09 12:21:47;;;;;;;10.13;6.97;;;;;;;;;;5021209;28;20211;-25
2024/01/09 12:24:18;;;;;;;10.57;6.90;;;;;;;;;;5013586;28;20220;-25
2024/01/09 12:26:51;;;;;;;9.97;6.27;;;;;;;;;;5002214;28;20455;-26
2024/01/09 12:29:19;;;;;;;14.13;7.07;;;;;;;;;;5000705;28;20218;-25
2024/01/09 12:42:12;;;;;;;9.80;6.33;;;;;;;;;;5022605;28;20218;-35
2024/01/09 12:49:49;;;;;;;10.87;6.63;;;;;;;;;;4998334;28;20295;-35
2024/01/09 13:06:09;;;;;;;10.50;7.40;;;;;;;;;;5019081;28;20238;-24
2024/01/09 13:08:56;;;;;;;10.67;5.77;;;;;;;;;;5010528;28;20203;-25
2024/01/09 13:11:29;;;;;;;10.07;5.70;;;;;;;;;;5012507;28;20211;-26
2024/01/09 13:14:04;;;;;;;10.03;5.77;;;;;;;;;;5012427;28;20281;-26
2024/01/09 13:16:39;;;;;;;9.77;5.83;;;;;;;;;;5012958;28;20568;-25
2024/01/09 13:19:09;;;;;;;8.93;5.97;;;;;;;;;;5011272;28;20203;-24
2024/01/09 13:21:44;;;;;;;10.33;5.97;;;;;;;;;;5009224;28;20218;-26
2024/01/09 13:24:21;;;;;;;11.03;7.00;;;;;;;;;;5010356;28;20589;-28
2024/01/09 13:26:53;;;;;;;10.63;6.10;;;;;;;;;;5011821;28;20238;-29
2024/01/09 13:29:27;;;;;;;8.30;5.80;;;;;;;;;;5016909;28;20207;-28
2024/01/09 13:31:55;;;;;;;9.37;6.73;;;;;;;;;;5012638;28;20215;-27
2024/01/09 13:34:25;;;;;;;9.93;6.23;;;;;;;;;;5012315;28;20234;-27
2024/01/09 13:36:58;;;;;;;11.03;6.27;;;;;;;;;;5011010;28;20285;-27
2024/01/09 13:39:29;;;;;;;9.87;5.57;;;;;;;;;;5016845;28;20649;-28
2024/01/09 13:44:32;;;;;;;8.80;5.30;;;;;;;;;;5010536;28;20223;-34
2024/01/09 13:47:02;;;;;;;9.50;5.90;;;;;;;;;;5003551;28;20227;-32
2024/01/09 13:49:35;;;;;;;10.33;6.23;;;;;;;;;;5012495;28;20199;-32
2024/01/09 13:52:08;;;;;;;10.93;6.43;;;;;;;;;;5012346;28;20209;-33
2024/01/09 13:54:43;;;;;;;9.90;5.20;;;;;;;;;;5011935;28;20223;-38
2024/01/09 13:57:16;;;;;;;9.67;6.23;;;;;;;;;;5002311;28;20205;-33
2024/01/09 13:59:45;;;;;;;8.83;6.27;;;;;;;;;;5009526;28;20212;-34
2024/01/09 14:04:49;;;;;;;10.37;6.17;;;;;;;;;;5022784;28;20223;-33
2024/01/09 14:07:20;;;;;;;11.33;5.50;;;;;;;;;;5023609;28;20241;-34
2024/01/09 14:09:59;;;;;;;10.27;5.73;;;;;;;;;;5012217;28;20199;-32
2024/01/09 14:12:31;;;;;;;9.67;5.73;;;;;;;;;;5012092;28;20214;-32
2024/01/09 14:15:00;;;;;;;11.33;5.97;;;;;;;;;;5011255;28;20242;-36
2024/01/09 14:17:36;;;;;;;8.87;6.20;;;;;;;;;;5018590;28;20206;-31
2024/01/09 14:22:33;;;;;;;10.57;5.53;;;;;;;;;;5049569;28;20206;-36
2024/01/09 14:25:03;;;;;;;9.07;5.43;;;;;;;;;;5044384;28;20249;-33
2024/01/09 14:27:32;;;;;;;11.47;6.57;;;;;;;;;;5030164;28;20241;-32
2024/01/09 14:30:02;;;;;;;10.73;6.03;;;;;;;;;;5034962;28;20214;-32
2024/01/09 14:32:38;;;;;;;11.03;4.93;;;;;;;;;;5034797;28;20285;-33
2024/01/09 14:35:13;;;;;;;10.90;5.60;;;;;;;;;;5034000;28;20232;-35
2024/01/09 14:51:14;;;;;;;9.80;5.90;;;;;;;;;;5032060;28;20198;-34
2024/01/09 14:53:45;;;;;;;10.03;5.37;;;;;;;;;;5027801;28;20265;-34
2024/01/09 14:56:20;;;;;;;7.17;4.63;;;;;;;;;;5034337;28;20233;-31
2024/01/09 14:59:19;;;;;;;7.60;4.80;;;;;;;;;;5020869;28;20289;-33
2024/01/09 15:01:55;;;;;;;8.77;5.17;;;;;;;;;;5033897;28;20215;-35
2024/01/09 15:04:29;;;;;;;7.23;4.70;;;;;;;;;;5031312;28;20230;-36
2024/01/09 15:07:23;;;;;;;9.57;5.00;;;;;;;;;;5031863;28;20211;-36
2024/01/09 15:09:56;;;;;;;8.30;5.17;;;;;;;;;;5025547;28;20215;-32
2024/01/09 15:12:33;;;;;;;8.13;4.87;;;;;;;;;;5033628;28;20203;-33
2024/01/09 15:15:04;;;;;;;9.50;5.27;;;;;;;;;;5032172;28;20229;-35
2024/01/09 15:17:34;;;;;;;9.37;5.57;;;;;;;;;;5029593;28;20632;-36
2024/01/09 15:20:08;;;;;;;8.27;5.10;;;;;;;;;;5027937;28;20210;-36
2024/01/09 15:22:40;;;;;;;7.90;4.50;;;;;;;;;;5033661;28;20272;-31
2024/01/09 15:25:12;;;;;;;8.23;5.47;;;;;;;;;;5031162;28;20253;-34
2024/01/09 15:27:49;;;;;;;9.73;4.57;;;;;;;;;;5025618;28;20230;-35
2024/01/09 15:35:27;;;;;;;9.23;5.13;;;;;;;;;;5025535;28;20242;-34
2024/01/09 15:38:02;;;;;;;11.93;5.13;;;;;;;;;;5025254;28;20203;-30
2024/01/09 15:40:34;;;;;;;11.53;5.30;;;;;;;;;;5023379;28;20260;-32
2024/01/09 15:43:09;;;;;;;11.97;6.10;;;;;;;;;;5031155;28;20203;-37
2024/01/09 15:45:37;;;;;;;10.20;5.50;;;;;;;;;;5032190;28;20213;-33
2024/01/09 15:48:11;;;;;;;8.33;5.17;;;;;;;;;;5030026;28;20313;-31
2024/01/09 15:50:41;;;;;;;6.83;5.07;;;;;;;;;;5027449;28;20202;-35
2024/01/09 15:53:18;;;;;;;11.73;5.40;;;;;;;;;;5032817;28;20210;-35
2024/01/09 15:55:46;;;;;;;8.77;4.90;;;;;;;;;;5028792;28;20222;-35
2024/01/09 15:58:15;;;;;;;9.23;4.67;;;;;;;;;;5025455;28;20207;-32
2024/01/09 16:00:42;;;;;;;8.07;5.07;;;;;;;;;;5033875;28;20209;-34
2024/01/09 16:03:12;;;;;;;8.63;5.37;;;;;;;;;;5031709;28;20194;-34
2024/01/09 16:05:43;;;;;;;11.30;6.20;;;;;;;;;;5028309;28;20234;-33
2024/01/09 16:10:42;;;;;;;10.20;5.73;;;;;;;;;;5022834;28;20222;-35
2024/01/09 16:13:13;;;;;;;8.90;5.20;;;;;;;;;;5022829;28;20298;-35
2024/01/09 16:15:45;;;;;;;11.13;5.60;;;;;;;;;;5024070;28;20222;-37
2024/01/09 16:18:13;;;;;;;16.00;8.40;;;;;;;;;;5013469;28;20225;-35
2024/01/09 16:20:48;;;;;;;14.33;7.17;;;;;;;;;;5028247;28;20210;-35
2024/01/09 16:23:20;;;;;;;17.53;8.87;;;;;;;;;;5012917;28;20207;-34
2024/01/09 16:25:56;;;;;;;11.73;6.67;;;;;;;;;;5011939;28;20247;-34
2024/01/09 16:28:24;;;;;;;9.93;5.57;;;;;;;;;;5025620;28;20257;-34
2024/01/09 16:30:54;;;;;;;10.67;5.90;;;;;;;;;;5024580;28;20760;-33
2024/01/09 16:33:24;;;;;;;9.30;5.03;;;;;;;;;;5032027;28;20675;-35
2024/01/09 16:35:55;;;;;;;8.33;5.33;;;;;;;;;;5015544;28;20286;-36
2024/01/09 16:38:24;;;;;;;11.43;5.57;;;;;;;;;;5017801;28;20318;-36
2024/01/09 16:41:03;;;;;;;8.40;5.20;;;;;;;;;;5028726;28;20279;-35
2024/01/09 16:43:35;;;;;;;11.07;5.47;;;;;;;;;;5012830;28;20211;-32
2024/01/09 16:46:07;;;;;;;7.97;4.73;;;;;;;;;;5012009;28;20697;-33
2024/01/09 16:48:37;;;;;;;11.70;5.27;;;;;;;;;;5012479;28;20227;-38
2024/01/09 16:51:06;;;;;;;8.23;5.33;;;;;;;;;;5015440;28;20219;-35
2024/01/09 16:53:56;;;;;;;11.03;5.70;;;;;;;;;;5018136;28;20198;-36
2024/01/09 16:59:01;;;;;;;10.30;5.60;;;;;;;;;;5009459;28;20234;-35
2024/01/09 17:01:29;;;;;;;10.63;4.80;;;;;;;;;;5011287;28;20211;-31
2024/01/09 17:03:58;;;;;;;7.67;4.87;;;;;;;;;;5011200;28;20211;-30
2024/01/09 17:06:30;;;;;;;9.30;5.20;;;;;;;;;;5005920;28;20222;-35
2024/01/09 17:08:58;;;;;;;9.47;5.30;;;;;;;;;;5012018;28;20234;-34
2024/01/09 17:11:30;;;;;;;8.67;5.40;;;;;;;;;;5012381;28;20222;-34
2024/01/09 17:13:58;;;;;;;8.63;5.50;;;;;;;;;;5009902;28;20211;-34
2024/01/09 17:16:29;;;;;;;8.27;4.50;;;;;;;;;;4998307;28;20211;-33
2024/01/09 17:18:57;;;;;;;6.63;4.33;;;;;;;;;;5008294;28;20207;-34
2024/01/09 17:21:29;;;;;;;7.87;4.67;;;;;;;;;;5004467;28;20294;-32
2024/01/09 17:23:57;;;;;;;6.97;4.60;;;;;;;;;;5009042;28;20207;-36
2024/01/09 17:26:25;;;;;;;9.87;5.70;;;;;;;;;;5012453;28;20219;-32
2024/01/09 17:28:55;;;;;;;9.60;5.30;;;;;;;;;;5011698;28;20231;-36
2024/01/09 17:31:23;;;;;;;9.60;5.47;;;;;;;;;;5012210;28;20290;-36
2024/01/09 17:33:56;;;;;;;11.33;4.90;;;;;;;;;;5005823;28;20214;-32
2024/01/09 17:36:24;;;;;;;9.93;5.97;;;;;;;;;;5004406;28;20207;-30
2024/01/09 17:38:52;;;;;;;8.67;5.07;;;;;;;;;;5010625;28;20203;-36
2024/01/09 17:41:21;;;;;;;9.97;6.33;;;;;;;;;;5009443;28;20207;-30
2024/01/09 17:44:15;;;;;;;9.73;5.00;;;;;;;;;;5004160;28;20207;-35
2024/01/09 17:46:46;;;;;;;10.47;5.90;;;;;;;;;;5008553;28;20230;-32
2024/01/09 17:49:21;;;;;;;7.27;5.00;;;;;;;;;;5006836;28;20317;-35
2024/01/09 17:51:50;;;;;;;9.37;5.10;;;;;;;;;;5007270;28;20298;-34
2024/01/09 17:54:18;;;;;;;9.53;5.57;;;;;;;;;;5008154;28;20793;-33
2024/01/09 17:56:51;;;;;;;9.87;5.10;;;;;;;;;;5011866;28;20199;-34
2024/01/09 17:59:21;;;;;;;8.17;5.10;;;;;;;;;;5010391;28;20617;-32
2024/01/09 18:01:53;;;;;;;11.10;5.67;;;;;;;;;;5015088;28;20725;-32
2024/01/09 18:04:29;;;;;;;12.90;5.93;;;;;;;;;;5010499;28;20287;-36
2024/01/09 18:06:57;;;;;;;9.07;5.83;;;;;;;;;;5012733;28;20218;-33
2024/01/09 18:09:29;;;;;;;8.60;5.03;;;;;;;;;;5111411;22;20325;-26
2024/01/09 18:14:36;;;;;;;10.20;5.50;;;;;;;;;;5995534;22;20254;-27
2024/01/09 18:17:07;;;;;;;9.83;4.93;;;;;;;;;;5014610;28;20199;-28
2024/01/09 18:19:39;;;;;;;12.07;5.40;;;;;;;;;;5014735;28;20200;-27
2024/01/09 18:22:11;;;;;;;12.23;5.77;;;;;;;;;;5011945;28;20238;-25
2024/01/09 18:30:40;;;;;;;16.27;7.93;;;;;;;;;;5042618;28;20630;-27
2024/01/09 18:33:13;;;;;;;18.50;8.43;;;;;;;;;;5041000;28;20211;-27
2024/01/09 18:35:59;;;;;;;14.37;7.97;;;;;;;;;;5054212;28;20719;-26
2024/01/09 18:38:37;;;;;;;13.07;7.63;;;;;;;;;;5058176;28;20210;-27
2024/01/09 18:41:11;;;;;;;12.97;8.70;;;;;;;;;;5057019;28;20305;-26
2024/01/09 18:43:44;;;;;;;14.50;7.30;;;;;;;;;;5042761;28;20203;-27
2024/01/09 18:46:20;;;;;;;16.40;8.50;;;;;;;;;;5051175;28;20352;-26
2024/01/09 18:48:57;;;;;;;12.20;7.20;;;;;;;;;;5053813;28;20236;-26
2024/01/09 18:51:43;;;;;;;14.50;7.70;;;;;;;;;;5051122;28;20214;-25
2024/01/09 18:54:31;;;;;;;11.27;7.30;;;;;;;;;;5054421;28;20663;-25
2024/01/09 18:57:27;;;;;;;;;;;;;;;;;;;;;
2024/01/09 19:05:45;;;;;;;14.90;7.50;;;;;;;;;;5020808;28;20223;-27
2024/01/09 19:08:35;;;;;;;11.37;6.50;;;;;;;;;;5007408;28;20218;-26
2024/01/09 19:11:14;;;;;;;15.07;6.90;;;;;;;;;;5017046;28;20225;-25
2024/01/09 19:13:49;;;;;;;15.20;7.60;;;;;;;;;;5018600;28;20211;-25
2024/01/09 19:16:22;;;;;;;11.90;7.07;;;;;;;;;;5023310;28;20214;-24